Bournemouth, United Kingdom

11:31 AM GMT on February 06, 2016 (GMT +0000)
Bournemouth | | Change Station
CLOSE
Current Station
Airport
Location: Bournemouth,
Elevation: 36 ft
Nearby Weather Stations

Elev 36 ft 50.78 °N, 1.84 °W | Updated 11 minutes ago

Mostly Cloudy
Mostly Cloudy
52 °F
Feels Like 52 °F
N
25
Wind Variable Wind from SSW
Gusts 38 mph

Today
High -- | Low -- °F
--% Chance of Precip.
Yesterday
High -- | Low -- °F
Precip. -- in
Pressure 29.44 in
Visibility 6.2 miles
Clouds Mostly Cloudy 1500 ft
Mostly Cloudy 3200 ft
Dew Point 48 °F
Humidity 88%
Rainfall 0.00 in
Snow Depth Not available.
7:36 AM 5:06 PM
Waning Crescent, 6% visible
METAR EGHH 061120Z 20022G33KT 9999 BKN015 BKN032 11/09 Q0997
Pressure 29.44 in
Visibility 6.2 miles
Clouds Mostly Cloudy 1500 ft
Mostly Cloudy 3200 ft
Dew Point 48 °F
Humidity 88%
Rainfall 0.00 in
Snow Depth Not available.
7:36 AM 5:06 PM
Waning Crescent, 6% visible
METAR EGHH 061120Z 20022G33KT 9999 BKN015 BKN032 11/09 Q0997

10-Day Weather Forecast

Almanac

Astronomy

Feb. 06, 2016 Rise Set
Actual Time
Civil Twilight
Nautical Twilight
Astronomical Twilight
Moon
Length of Visible Light
Length of Day
Tomorrow will be .
, % of the Moon is Illuminated

Today's Extremes

Country Highs Country Lows

Community

WunderPhotos

Upload Photos

1,890,933 photos uploaded!

WunderBlog® & News

Nearby

Air Quality

  Air Quality AQ Index Pollutant
Not available.

Snow Depth

Station Depth Elevation

Earthquake Activity

City Distance Mag. Time & Date
Minimum magnitude displayed is 2.5.

Coastal Water Temperatures

Place Temperature

Stations

Nearby Weather Stations

Station Location Temp. Windchill Dew Point Humidity Wind Precip. Elev Updated Type